sensor_id;sensor_type;location;lat;lon;timestamp;temperature;humidity
52211;DHT22;38179;52.756;6.906;2022-07-29T00:01:23;15.60;99.90
52211;DHT22;38179;52.756;6.906;2022-07-29T00:03:49;15.60;99.90
52211;DHT22;38179;52.756;6.906;2022-07-29T00:06:15;15.60;99.90
52211;DHT22;38179;52.756;6.906;2022-07-29T00:08:41;15.60;99.90
52211;DHT22;38179;52.756;6.906;2022-07-29T00:11:07;15.60;99.90
52211;DHT22;38179;52.756;6.906;2022-07-29T00:13:33;15.50;99.90
52211;DHT22;38179;52.756;6.906;2022-07-29T00:15:59;15.50;99.90
52211;DHT22;38179;52.756;6.906;2022-07-29T00:18:25;15.50;99.90
52211;DHT22;38179;52.756;6.906;2022-07-29T00:20:51;15.50;99.90
52211;DHT22;38179;52.756;6.906;2022-07-29T00:23:17;15.50;99.90
52211;DHT22;38179;52.756;6.906;2022-07-29T00:25:42;15.50;99.90
52211;DHT22;38179;52.756;6.906;2022-07-29T00:28:08;15.50;99.90
52211;DHT22;38179;52.756;6.906;2022-07-29T00:30:34;15.50;99.90
52211;DHT22;38179;52.756;6.906;2022-07-29T00:33:00;15.50;99.90
52211;DHT22;38179;52.756;6.906;2022-07-29T00:35:26;15.50;99.90
52211;DHT22;38179;52.756;6.906;2022-07-29T00:38:11;15.50;99.90
52211;DHT22;38179;52.756;6.906;2022-07-29T00:40:37;15.40;99.90
52211;DHT22;38179;52.756;6.906;2022-07-29T00:43:03;15.40;99.90
52211;DHT22;38179;52.756;6.906;2022-07-29T00:45:29;15.40;99.90
52211;DHT22;38179;52.756;6.906;2022-07-29T00:47:55;15.40;99.90
52211;DHT22;38179;52.756;6.906;2022-07-29T00:50:21;15.50;99.90
52211;DHT22;38179;52.756;6.906;2022-07-29T00:52:48;15.50;99.90
52211;DHT22;38179;52.756;6.906;2022-07-29T00:55:15;15.40;99.90
52211;DHT22;38179;52.756;6.906;2022-07-29T00:57:43;15.40;99.90
52211;DHT22;38179;52.756;6.906;2022-07-29T01:00:12;15.40;99.90
52211;DHT22;38179;52.756;6.906;2022-07-29T01:02:38;15.40;99.90
52211;DHT22;38179;52.756;6.906;2022-07-29T01:05:05;15.40;99.90
52211;DHT22;38179;52.756;6.906;2022-07-29T01:07:33;15.40;99.90
52211;DHT22;38179;52.756;6.906;2022-07-29T01:10:02;15.30;99.90
52211;DHT22;38179;52.756;6.906;2022-07-29T01:12:29;15.30;99.90
52211;DHT22;38179;52.756;6.906;2022-07-29T01:14:59;15.30;99.90
52211;DHT22;38179;52.756;6.906;2022-07-29T01:17:27;15.30;99.90
52211;DHT22;38179;52.756;6.906;2022-07-29T01:20:27;15.30;99.90
52211;DHT22;38179;52.756;6.906;2022-07-29T01:31:25;15.20;99.90
52211;DHT22;38179;52.756;6.906;2022-07-29T01:33:58;15.20;99.90
52211;DHT22;38179;52.756;6.906;2022-07-29T01:36:40;15.20;99.90
52211;DHT22;38179;52.756;6.906;2022-07-29T01:39:17;15.20;99.90
52211;DHT22;38179;52.756;6.906;2022-07-29T01:41:50;15.20;99.90
52211;DHT22;38179;52.756;6.906;2022-07-29T01:44:31;15.20;99.90
52211;DHT22;38179;52.756;6.906;2022-07-29T01:47:01;15.20;99.90
52211;DHT22;38179;52.756;6.906;2022-07-29T01:49:33;15.10;99.90
52211;DHT22;38179;52.756;6.906;2022-07-29T01:52:05;15.10;99.90
52211;DHT22;38179;52.756;6.906;2022-07-29T01:54:43;15.10;99.90
52211;DHT22;38179;52.756;6.906;2022-07-29T01:57:15;15.10;99.90
52211;DHT22;38179;52.756;6.906;2022-07-29T01:59:46;15.10;99.90
52211;DHT22;38179;52.756;6.906;2022-07-29T02:02:15;15.10;99.90
52211;DHT22;38179;52.756;6.906;2022-07-29T02:04:43;15.10;99.90
52211;DHT22;38179;52.756;6.906;2022-07-29T02:07:13;15.10;99.90
52211;DHT22;38179;52.756;6.906;2022-07-29T02:09:41;15.10;99.90
52211;DHT22;38179;52.756;6.906;2022-07-29T02:12:08;15.10;99.90
52211;DHT22;38179;52.756;6.906;2022-07-29T02:14:39;15.10;99.90
52211;DHT22;38179;52.756;6.906;2022-07-29T02:17:06;15.10;99.90
52211;DHT22;38179;52.756;6.906;2022-07-29T02:19:34;15.00;99.90
52211;DHT22;38179;52.756;6.906;2022-07-29T02:22:02;15.00;99.90
52211;DHT22;38179;52.756;6.906;2022-07-29T02:24:30;15.00;99.90
52211;DHT22;38179;52.756;6.906;2022-07-29T02:26:57;15.00;99.90
52211;DHT22;38179;52.756;6.906;2022-07-29T02:29:26;15.00;99.90
52211;DHT22;38179;52.756;6.906;2022-07-29T02:31:53;15.00;99.90
52211;DHT22;38179;52.756;6.906;2022-07-29T02:34:21;15.00;99.90
52211;DHT22;38179;52.756;6.906;2022-07-29T02:36:48;15.00;99.90
52211;DHT22;38179;52.756;6.906;2022-07-29T02:39:15;15.00;99.90
52211;DHT22;38179;52.756;6.906;2022-07-29T02:41:47;15.00;99.90
52211;DHT22;38179;52.756;6.906;2022-07-29T02:44:15;14.90;99.90
52211;DHT22;38179;52.756;6.906;2022-07-29T02:49:43;14.90;99.90
52211;DHT22;38179;52.756;6.906;2022-07-29T02:55:18;14.90;99.90
52211;DHT22;38179;52.756;6.906;2022-07-29T02:57:49;14.90;99.90
52211;DHT22;38179;52.756;6.906;2022-07-29T03:00:17;14.90;99.90
52211;DHT22;38179;52.756;6.906;2022-07-29T03:02:51;15.00;99.90
52211;DHT22;38179;52.756;6.906;2022-07-29T03:05:20;15.00;99.90
52211;DHT22;38179;52.756;6.906;2022-07-29T03:07:51;14.90;99.90
52211;DHT22;38179;52.756;6.906;2022-07-29T03:10:18;14.90;99.90
52211;DHT22;38179;52.756;6.906;2022-07-29T03:12:44;14.90;99.90
52211;DHT22;38179;52.756;6.906;2022-07-29T03:15:11;14.80;99.90
52211;DHT22;38179;52.756;6.906;2022-07-29T03:17:37;14.90;99.90
52211;DHT22;38179;52.756;6.906;2022-07-29T03:20:07;14.80;99.90
52211;DHT22;38179;52.756;6.906;2022-07-29T03:22:38;14.90;99.90
52211;DHT22;38179;52.756;6.906;2022-07-29T03:25:08;14.80;99.90
52211;DHT22;38179;52.756;6.906;2022-07-29T03:27:34;14.80;99.90
52211;DHT22;38179;52.756;6.906;2022-07-29T03:30:00;14.80;99.90
52211;DHT22;38179;52.756;6.906;2022-07-29T03:32:26;14.90;99.90
52211;DHT22;38179;52.756;6.906;2022-07-29T03:34:52;14.90;99.90
52211;DHT22;38179;52.756;6.906;2022-07-29T03:37:18;14.90;99.90
52211;DHT22;38179;52.756;6.906;2022-07-29T03:39:44;14.80;99.90
52211;DHT22;38179;52.756;6.906;2022-07-29T03:42:13;14.80;99.90
52211;DHT22;38179;52.756;6.906;2022-07-29T03:44:44;14.80;99.90
52211;DHT22;38179;52.756;6.906;2022-07-29T03:47:13;14.80;99.90
52211;DHT22;38179;52.756;6.906;2022-07-29T03:49:41;14.70;99.90
52211;DHT22;38179;52.756;6.906;2022-07-29T03:52:08;14.70;99.90
52211;DHT22;38179;52.756;6.906;2022-07-29T03:54:34;14.70;99.90
52211;DHT22;38179;52.756;6.906;2022-07-29T03:57:01;14.70;99.90
52211;DHT22;38179;52.756;6.906;2022-07-29T03:59:27;14.70;99.90
52211;DHT22;38179;52.756;6.906;2022-07-29T04:01:57;14.70;99.90
52211;DHT22;38179;52.756;6.906;2022-07-29T04:04:23;14.70;99.90
52211;DHT22;38179;52.756;6.906;2022-07-29T04:06:50;14.70;99.90
52211;DHT22;38179;52.756;6.906;2022-07-29T04:09:16;14.70;99.90
52211;DHT22;38179;52.756;6.906;2022-07-29T04:11:42;14.60;99.90
52211;DHT22;38179;52.756;6.906;2022-07-29T04:14:08;14.70;99.90
52211;DHT22;38179;52.756;6.906;2022-07-29T04:16:34;14.70;99.90
52211;DHT22;38179;52.756;6.906;2022-07-29T04:19:00;14.60;99.90
52211;DHT22;38179;52.756;6.906;2022-07-29T04:21:25;14.60;99.90
52211;DHT22;38179;52.756;6.906;2022-07-29T04:23:51;14.60;99.90
52211;DHT22;38179;52.756;6.906;2022-07-29T04:26:18;14.60;99.90
52211;DHT22;38179;52.756;6.906;2022-07-29T04:28:45;14.70;99.90
52211;DHT22;38179;52.756;6.906;2022-07-29T04:31:12;14.70;99.90
52211;DHT22;38179;52.756;6.906;2022-07-29T04:33:38;14.70;99.90
52211;DHT22;38179;52.756;6.906;2022-07-29T04:36:05;14.70;99.90
52211;DHT22;38179;52.756;6.906;2022-07-29T04:38:31;14.70;99.90
52211;DHT22;38179;52.756;6.906;2022-07-29T04:40:56;14.70;99.90
52211;DHT22;38179;52.756;6.906;2022-07-29T04:43:22;14.70;99.90
52211;DHT22;38179;52.756;6.906;2022-07-29T04:45:48;14.70;99.90
52211;DHT22;38179;52.756;6.906;2022-07-29T04:48:14;14.60;99.90
52211;DHT22;38179;52.756;6.906;2022-07-29T04:50:40;14.70;99.90
52211;DHT22;38179;52.756;6.906;2022-07-29T04:53:07;14.60;99.90
52211;DHT22;38179;52.756;6.906;2022-07-29T04:55:33;14.70;99.90
52211;DHT22;38179;52.756;6.906;2022-07-29T04:57:59;14.70;99.90
52211;DHT22;38179;52.756;6.906;2022-07-29T05:00:25;14.60;99.90
52211;DHT22;38179;52.756;6.906;2022-07-29T05:02:51;14.60;99.90
52211;DHT22;38179;52.756;6.906;2022-07-29T05:05:17;14.70;99.90
52211;DHT22;38179;52.756;6.906;2022-07-29T05:07:43;14.70;99.90
52211;DHT22;38179;52.756;6.906;2022-07-29T05:10:09;14.70;99.90
52211;DHT22;38179;52.756;6.906;2022-07-29T05:12:35;14.70;99.90
52211;DHT22;38179;52.756;6.906;2022-07-29T05:15:01;14.70;99.90
52211;DHT22;38179;52.756;6.906;2022-07-29T05:17:27;14.70;99.90
52211;DHT22;38179;52.756;6.906;2022-07-29T05:19:55;14.70;99.90
52211;DHT22;38179;52.756;6.906;2022-07-29T05:22:23;14.70;99.90
52211;DHT22;38179;52.756;6.906;2022-07-29T05:24:49;14.70;99.90
52211;DHT22;38179;52.756;6.906;2022-07-29T05:27:15;14.80;99.90
52211;DHT22;38179;52.756;6.906;2022-07-29T05:29:41;14.80;99.90
52211;DHT22;38179;52.756;6.906;2022-07-29T05:32:07;14.90;99.90
52211;DHT22;38179;52.756;6.906;2022-07-29T05:34:32;14.90;99.90
52211;DHT22;38179;52.756;6.906;2022-07-29T05:36:58;14.90;99.90
52211;DHT22;38179;52.756;6.906;2022-07-29T05:39:25;14.90;99.90
52211;DHT22;38179;52.756;6.906;2022-07-29T05:41:50;15.00;99.90
52211;DHT22;38179;52.756;6.906;2022-07-29T05:44:16;15.00;99.90
52211;DHT22;38179;52.756;6.906;2022-07-29T05:46:42;15.00;99.90
52211;DHT22;38179;52.756;6.906;2022-07-29T05:49:08;15.00;99.90
52211;DHT22;38179;52.756;6.906;2022-07-29T05:51:34;15.00;99.90
52211;DHT22;38179;52.756;6.906;2022-07-29T05:54:00;15.00;99.90
52211;DHT22;38179;52.756;6.906;2022-07-29T05:56:27;15.00;99.90
52211;DHT22;38179;52.756;6.906;2022-07-29T05:58:53;15.00;99.90
52211;DHT22;38179;52.756;6.906;2022-07-29T06:01:19;15.00;99.90
52211;DHT22;38179;52.756;6.906;2022-07-29T06:03:45;15.00;99.90
52211;DHT22;38179;52.756;6.906;2022-07-29T06:06:11;15.00;99.90
52211;DHT22;38179;52.756;6.906;2022-07-29T06:08:37;15.00;99.90
52211;DHT22;38179;52.756;6.906;2022-07-29T06:11:04;15.00;99.90
52211;DHT22;38179;52.756;6.906;2022-07-29T06:13:31;15.10;99.90
52211;DHT22;38179;52.756;6.906;2022-07-29T06:15:57;15.10;99.90
52211;DHT22;38179;52.756;6.906;2022-07-29T06:18:23;15.20;99.90
52211;DHT22;38179;52.756;6.906;2022-07-29T06:20:51;15.20;99.90
52211;DHT22;38179;52.756;6.906;2022-07-29T06:23:18;15.20;99.90
52211;DHT22;38179;52.756;6.906;2022-07-29T06:25:45;15.20;99.90
52211;DHT22;38179;52.756;6.906;2022-07-29T06:28:11;15.30;99.90
52211;DHT22;38179;52.756;6.906;2022-07-29T06:30:37;15.30;99.90
52211;DHT22;38179;52.756;6.906;2022-07-29T06:33:03;15.30;99.90
52211;DHT22;38179;52.756;6.906;2022-07-29T06:35:29;15.40;99.90
52211;DHT22;38179;52.756;6.906;2022-07-29T06:37:55;15.40;99.90
52211;DHT22;38179;52.756;6.906;2022-07-29T06:40:21;15.50;99.90
52211;DHT22;38179;52.756;6.906;2022-07-29T06:43:06;15.50;99.90
52211;DHT22;38179;52.756;6.906;2022-07-29T06:45:35;15.50;99.90
52211;DHT22;38179;52.756;6.906;2022-07-29T06:48:00;15.60;99.90
52211;DHT22;38179;52.756;6.906;2022-07-29T06:50:26;15.60;99.90
52211;DHT22;38179;52.756;6.906;2022-07-29T06:52:52;15.70;99.90
52211;DHT22;38179;52.756;6.906;2022-07-29T06:55:18;15.70;99.90
52211;DHT22;38179;52.756;6.906;2022-07-29T06:57:45;15.80;99.90
52211;DHT22;38179;52.756;6.906;2022-07-29T07:00:12;15.90;99.90
52211;DHT22;38179;52.756;6.906;2022-07-29T07:02:38;15.90;99.90
52211;DHT22;38179;52.756;6.906;2022-07-29T07:05:05;16.00;99.90
52211;DHT22;38179;52.756;6.906;2022-07-29T07:07:31;16.00;99.90
52211;DHT22;38179;52.756;6.906;2022-07-29T07:09:57;16.10;99.90
52211;DHT22;38179;52.756;6.906;2022-07-29T07:12:23;16.00;99.90
52211;DHT22;38179;52.756;6.906;2022-07-29T07:14:48;16.10;99.90
52211;DHT22;38179;52.756;6.906;2022-07-29T07:17:14;16.10;99.90
52211;DHT22;38179;52.756;6.906;2022-07-29T07:19:40;16.10;99.90
52211;DHT22;38179;52.756;6.906;2022-07-29T07:22:06;16.20;99.90
52211;DHT22;38179;52.756;6.906;2022-07-29T07:24:32;16.20;99.90
52211;DHT22;38179;52.756;6.906;2022-07-29T07:26:58;16.20;99.90
52211;DHT22;38179;52.756;6.906;2022-07-29T07:29:24;16.30;99.90
52211;DHT22;38179;52.756;6.906;2022-07-29T07:31:49;16.30;99.90
52211;DHT22;38179;52.756;6.906;2022-07-29T07:34:15;16.40;99.90
52211;DHT22;38179;52.756;6.906;2022-07-29T07:36:41;16.40;99.90
52211;DHT22;38179;52.756;6.906;2022-07-29T07:39:07;16.50;99.90
52211;DHT22;38179;52.756;6.906;2022-07-29T07:41:33;16.50;99.90
52211;DHT22;38179;52.756;6.906;2022-07-29T07:43:59;16.50;99.90
52211;DHT22;38179;52.756;6.906;2022-07-29T07:46:28;16.60;99.90
52211;DHT22;38179;52.756;6.906;2022-07-29T07:48:54;16.70;99.90
52211;DHT22;38179;52.756;6.906;2022-07-29T07:51:19;16.80;99.90
52211;DHT22;38179;52.756;6.906;2022-07-29T07:53:45;16.90;99.90
52211;DHT22;38179;52.756;6.906;2022-07-29T07:56:15;16.90;99.90
52211;DHT22;38179;52.756;6.906;2022-07-29T07:58:41;17.00;99.90
52211;DHT22;38179;52.756;6.906;2022-07-29T08:01:08;17.10;99.90
52211;DHT22;38179;52.756;6.906;2022-07-29T08:03:35;17.20;99.90
52211;DHT22;38179;52.756;6.906;2022-07-29T08:06:02;17.30;99.90
52211;DHT22;38179;52.756;6.906;2022-07-29T08:08:28;17.40;99.90
52211;DHT22;38179;52.756;6.906;2022-07-29T08:10:53;17.40;99.90
52211;DHT22;38179;52.756;6.906;2022-07-29T08:13:23;17.50;99.90
52211;DHT22;38179;52.756;6.906;2022-07-29T08:15:49;17.50;99.90
52211;DHT22;38179;52.756;6.906;2022-07-29T08:18:29;17.50;99.90
52211;DHT22;38179;52.756;6.906;2022-07-29T08:20:56;17.50;99.90
52211;DHT22;38179;52.756;6.906;2022-07-29T08:23:22;17.60;99.90
52211;DHT22;38179;52.756;6.906;2022-07-29T08:25:49;17.60;99.90
52211;DHT22;38179;52.756;6.906;2022-07-29T08:28:16;17.60;99.90
52211;DHT22;38179;52.756;6.906;2022-07-29T08:30:42;17.70;99.90
52211;DHT22;38179;52.756;6.906;2022-07-29T08:33:07;17.70;99.90
52211;DHT22;38179;52.756;6.906;2022-07-29T08:35:33;17.80;99.90
52211;DHT22;38179;52.756;6.906;2022-07-29T08:37:59;17.80;99.90
52211;DHT22;38179;52.756;6.906;2022-07-29T08:40:25;17.90;99.90
52211;DHT22;38179;52.756;6.906;2022-07-29T08:42:51;17.90;99.90
52211;DHT22;38179;52.756;6.906;2022-07-29T08:45:17;18.00;99.90
52211;DHT22;38179;52.756;6.906;2022-07-29T08:47:45;18.00;99.90
52211;DHT22;38179;52.756;6.906;2022-07-29T08:50:12;18.10;99.90
52211;DHT22;38179;52.756;6.906;2022-07-29T08:52:41;18.10;99.90
52211;DHT22;38179;52.756;6.906;2022-07-29T08:55:09;18.20;99.90
52211;DHT22;38179;52.756;6.906;2022-07-29T08:57:36;18.20;99.90
52211;DHT22;38179;52.756;6.906;2022-07-29T09:00:06;18.20;99.90
52211;DHT22;38179;52.756;6.906;2022-07-29T09:02:38;18.30;99.90
52211;DHT22;38179;52.756;6.906;2022-07-29T09:05:05;18.30;99.90
52211;DHT22;38179;52.756;6.906;2022-07-29T09:07:32;18.30;99.90
52211;DHT22;38179;52.756;6.906;2022-07-29T09:09:59;18.40;99.90
52211;DHT22;38179;52.756;6.906;2022-07-29T09:12:25;18.50;99.90
52211;DHT22;38179;52.756;6.906;2022-07-29T09:14:52;18.50;99.90
52211;DHT22;38179;52.756;6.906;2022-07-29T09:17:18;18.70;99.90
52211;DHT22;38179;52.756;6.906;2022-07-29T09:20:17;18.80;99.90
52211;DHT22;38179;52.756;6.906;2022-07-29T09:22:44;18.90;99.90
52211;DHT22;38179;52.756;6.906;2022-07-29T09:25:12;18.90;99.90
52211;DHT22;38179;52.756;6.906;2022-07-29T09:27:39;18.90;99.90
52211;DHT22;38179;52.756;6.906;2022-07-29T09:30:07;18.90;99.90
52211;DHT22;38179;52.756;6.906;2022-07-29T09:32:57;18.90;99.90
52211;DHT22;38179;52.756;6.906;2022-07-29T09:35:25;19.00;99.90
52211;DHT22;38179;52.756;6.906;2022-07-29T09:37:52;19.00;99.90
52211;DHT22;38179;52.756;6.906;2022-07-29T09:40:23;19.00;99.90
52211;DHT22;38179;52.756;6.906;2022-07-29T09:42:52;19.10;99.90
52211;DHT22;38179;52.756;6.906;2022-07-29T09:45:28;19.10;99.90
52211;DHT22;38179;52.756;6.906;2022-07-29T09:47:55;19.10;99.90
52211;DHT22;38179;52.756;6.906;2022-07-29T09:50:33;19.20;99.90
52211;DHT22;38179;52.756;6.906;2022-07-29T09:53:00;19.20;99.90
52211;DHT22;38179;52.756;6.906;2022-07-29T09:55:26;19.20;99.90
52211;DHT22;38179;52.756;6.906;2022-07-29T09:57:52;19.30;99.90
52211;DHT22;38179;52.756;6.906;2022-07-29T10:00:20;19.30;99.90
52211;DHT22;38179;52.756;6.906;2022-07-29T10:02:48;19.30;99.90
52211;DHT22;38179;52.756;6.906;2022-07-29T10:05:21;19.30;99.90
52211;DHT22;38179;52.756;6.906;2022-07-29T10:07:50;19.30;99.90
52211;DHT22;38179;52.756;6.906;2022-07-29T10:10:20;19.40;99.90
52211;DHT22;38179;52.756;6.906;2022-07-29T10:12:59;19.40;99.90
52211;DHT22;38179;52.756;6.906;2022-07-29T10:15:30;19.40;99.90
52211;DHT22;38179;52.756;6.906;2022-07-29T10:17:59;19.30;99.90
52211;DHT22;38179;52.756;6.906;2022-07-29T10:20:27;19.30;99.90
52211;DHT22;38179;52.756;6.906;2022-07-29T10:22:53;19.30;99.90
52211;DHT22;38179;52.756;6.906;2022-07-29T10:25:21;19.30;99.90
52211;DHT22;38179;52.756;6.906;2022-07-29T10:27:49;19.30;99.90
52211;DHT22;38179;52.756;6.906;2022-07-29T10:30:17;19.30;99.90
52211;DHT22;38179;52.756;6.906;2022-07-29T10:33:10;19.20;99.90
52211;DHT22;38179;52.756;6.906;2022-07-29T10:44:08;19.10;99.90
52211;DHT22;38179;52.756;6.906;2022-07-29T10:46:39;19.10;99.90
52211;DHT22;38179;52.756;6.906;2022-07-29T10:52:09;19.10;99.90
52211;DHT22;38179;52.756;6.906;2022-07-29T10:54:42;19.00;99.90
52211;DHT22;38179;52.756;6.906;2022-07-29T10:59:42;19.00;99.90
52211;DHT22;38179;52.756;6.906;2022-07-29T11:05:06;19.00;99.90
52211;DHT22;38179;52.756;6.906;2022-07-29T11:07:35;19.00;99.90
52211;DHT22;38179;52.756;6.906;2022-07-29T11:15:10;19.10;99.90
52211;DHT22;38179;52.756;6.906;2022-07-29T11:20:44;19.10;99.90
52211;DHT22;38179;52.756;6.906;2022-07-29T11:28:50;19.20;99.90
52211;DHT22;38179;52.756;6.906;2022-07-29T11:31:41;19.30;99.90
52211;DHT22;38179;52.756;6.906;2022-07-29T11:34:23;19.40;99.90
52211;DHT22;38179;52.756;6.906;2022-07-29T11:39:41;19.40;99.90
52211;DHT22;38179;52.756;6.906;2022-07-29T11:45:19;19.50;99.90
52211;DHT22;38179;52.756;6.906;2022-07-29T11:50:14;19.50;99.90
52211;DHT22;38179;52.756;6.906;2022-07-29T11:52:44;19.50;99.90
52211;DHT22;38179;52.756;6.906;2022-07-29T11:55:19;19.50;99.90
52211;DHT22;38179;52.756;6.906;2022-07-29T11:57:57;19.50;99.90
52211;DHT22;38179;52.756;6.906;2022-07-29T12:00:46;19.50;99.90
52211;DHT22;38179;52.756;6.906;2022-07-29T12:03:26;19.50;99.90
52211;DHT22;38179;52.756;6.906;2022-07-29T12:05:52;19.50;99.90
52211;DHT22;38179;52.756;6.906;2022-07-29T12:08:21;19.60;99.90
52211;DHT22;38179;52.756;6.906;2022-07-29T12:10:51;19.60;99.90
52211;DHT22;38179;52.756;6.906;2022-07-29T12:13:18;19.70;99.90
52211;DHT22;38179;52.756;6.906;2022-07-29T12:15:57;19.70;99.90
52211;DHT22;38179;52.756;6.906;2022-07-29T12:18:24;19.70;99.90
52211;DHT22;38179;52.756;6.906;2022-07-29T12:20:57;19.70;99.90
52211;DHT22;38179;52.756;6.906;2022-07-29T12:23:23;19.80;99.90
52211;DHT22;38179;52.756;6.906;2022-07-29T12:25:49;19.80;99.90
52211;DHT22;38179;52.756;6.906;2022-07-29T12:28:16;19.90;99.90
52211;DHT22;38179;52.756;6.906;2022-07-29T12:30:48;19.90;99.90
52211;DHT22;38179;52.756;6.906;2022-07-29T12:33:20;19.90;99.90
52211;DHT22;38179;52.756;6.906;2022-07-29T12:35:49;19.90;99.90
52211;DHT22;38179;52.756;6.906;2022-07-29T12:38:16;20.00;99.90
52211;DHT22;38179;52.756;6.906;2022-07-29T12:40:43;20.00;99.90
52211;DHT22;38179;52.756;6.906;2022-07-29T12:43:17;20.00;99.90
52211;DHT22;38179;52.756;6.906;2022-07-29T12:45:47;20.10;99.90
52211;DHT22;38179;52.756;6.906;2022-07-29T12:48:14;20.20;99.90
52211;DHT22;38179;52.756;6.906;2022-07-29T12:50:55;20.20;99.90
52211;DHT22;38179;52.756;6.906;2022-07-29T12:53:21;20.20;99.90
52211;DHT22;38179;52.756;6.906;2022-07-29T12:55:49;20.20;99.90
52211;DHT22;38179;52.756;6.906;2022-07-29T12:58:38;20.30;99.90
52211;DHT22;38179;52.756;6.906;2022-07-29T13:03:56;20.40;99.90
52211;DHT22;38179;52.756;6.906;2022-07-29T13:06:35;20.40;99.90
52211;DHT22;38179;52.756;6.906;2022-07-29T13:09:07;20.50;99.90
52211;DHT22;38179;52.756;6.906;2022-07-29T13:11:35;20.50;99.90
52211;DHT22;38179;52.756;6.906;2022-07-29T13:14:02;20.50;99.90
52211;DHT22;38179;52.756;6.906;2022-07-29T13:16:28;20.60;99.90
52211;DHT22;38179;52.756;6.906;2022-07-29T13:19:08;20.70;99.90
52211;DHT22;38179;52.756;6.906;2022-07-29T13:21:35;20.70;99.90
52211;DHT22;38179;52.756;6.906;2022-07-29T13:24:02;20.70;99.90
52211;DHT22;38179;52.756;6.906;2022-07-29T13:26:28;20.70;99.90
52211;DHT22;38179;52.756;6.906;2022-07-29T13:28:54;20.80;99.90
52211;DHT22;38179;52.756;6.906;2022-07-29T13:31:21;20.80;99.90
52211;DHT22;38179;52.756;6.906;2022-07-29T13:33:47;20.90;99.90
52211;DHT22;38179;52.756;6.906;2022-07-29T13:36:16;20.90;99.90
52211;DHT22;38179;52.756;6.906;2022-07-29T13:38:42;21.00;99.90
52211;DHT22;38179;52.756;6.906;2022-07-29T13:41:08;21.00;99.90
52211;DHT22;38179;52.756;6.906;2022-07-29T13:43:33;21.20;99.90
52211;DHT22;38179;52.756;6.906;2022-07-29T13:46:00;21.40;99.90
52211;DHT22;38179;52.756;6.906;2022-07-29T13:48:26;21.60;99.90
52211;DHT22;38179;52.756;6.906;2022-07-29T13:50:52;21.80;99.90
52211;DHT22;38179;52.756;6.906;2022-07-29T13:53:18;22.00;99.90
52211;DHT22;38179;52.756;6.906;2022-07-29T13:55:44;22.10;99.90
52211;DHT22;38179;52.756;6.906;2022-07-29T13:58:09;22.20;99.90
52211;DHT22;38179;52.756;6.906;2022-07-29T14:00:35;22.30;99.90
52211;DHT22;38179;52.756;6.906;2022-07-29T14:03:01;22.50;99.90
52211;DHT22;38179;52.756;6.906;2022-07-29T14:05:27;22.40;99.90
52211;DHT22;38179;52.756;6.906;2022-07-29T14:07:53;22.40;99.90
52211;DHT22;38179;52.756;6.906;2022-07-29T14:10:19;22.50;99.90
52211;DHT22;38179;52.756;6.906;2022-07-29T14:12:45;22.50;99.90
52211;DHT22;38179;52.756;6.906;2022-07-29T14:15:10;22.60;99.90
52211;DHT22;38179;52.756;6.906;2022-07-29T14:17:36;22.50;99.90
52211;DHT22;38179;52.756;6.906;2022-07-29T14:20:03;22.50;99.90
52211;DHT22;38179;52.756;6.906;2022-07-29T14:22:29;22.60;99.90
52211;DHT22;38179;52.756;6.906;2022-07-29T14:24:55;22.70;99.90
52211;DHT22;38179;52.756;6.906;2022-07-29T14:27:21;22.70;99.90
52211;DHT22;38179;52.756;6.906;2022-07-29T14:29:47;22.70;99.90
52211;DHT22;38179;52.756;6.906;2022-07-29T14:32:13;22.90;99.90
52211;DHT22;38179;52.756;6.906;2022-07-29T14:34:40;22.90;99.90
52211;DHT22;38179;52.756;6.906;2022-07-29T14:37:06;23.00;99.90
52211;DHT22;38179;52.756;6.906;2022-07-29T14:39:33;23.10;99.90
52211;DHT22;38179;52.756;6.906;2022-07-29T14:41:59;23.20;99.90
52211;DHT22;38179;52.756;6.906;2022-07-29T14:44:25;23.20;99.90
52211;DHT22;38179;52.756;6.906;2022-07-29T14:46:57;23.20;99.90
52211;DHT22;38179;52.756;6.906;2022-07-29T14:49:25;23.10;99.90
52211;DHT22;38179;52.756;6.906;2022-07-29T14:51:51;23.10;99.90
52211;DHT22;38179;52.756;6.906;2022-07-29T14:54:17;23.00;99.90
52211;DHT22;38179;52.756;6.906;2022-07-29T14:56:43;23.00;99.90
52211;DHT22;38179;52.756;6.906;2022-07-29T14:59:09;22.90;99.90
52211;DHT22;38179;52.756;6.906;2022-07-29T15:01:35;22.80;99.90
52211;DHT22;38179;52.756;6.906;2022-07-29T15:04:01;22.80;99.90
52211;DHT22;38179;52.756;6.906;2022-07-29T15:06:27;22.70;99.90
52211;DHT22;38179;52.756;6.906;2022-07-29T15:08:53;22.70;99.90
52211;DHT22;38179;52.756;6.906;2022-07-29T15:11:19;22.70;99.90
52211;DHT22;38179;52.756;6.906;2022-07-29T15:13:45;22.70;99.90
52211;DHT22;38179;52.756;6.906;2022-07-29T15:16:11;22.80;99.90
52211;DHT22;38179;52.756;6.906;2022-07-29T15:18:36;22.90;99.90
52211;DHT22;38179;52.756;6.906;2022-07-29T15:21:04;23.20;99.90
52211;DHT22;38179;52.756;6.906;2022-07-29T15:23:34;23.40;99.90
52211;DHT22;38179;52.756;6.906;2022-07-29T15:26:02;23.70;99.90
52211;DHT22;38179;52.756;6.906;2022-07-29T15:28:29;23.80;99.90
52211;DHT22;38179;52.756;6.906;2022-07-29T15:30:54;23.70;99.90
52211;DHT22;38179;52.756;6.906;2022-07-29T15:33:20;23.70;99.90
52211;DHT22;38179;52.756;6.906;2022-07-29T15:35:46;23.70;99.90
52211;DHT22;38179;52.756;6.906;2022-07-29T15:38:12;23.70;99.90
52211;DHT22;38179;52.756;6.906;2022-07-29T15:40:38;23.60;99.90
52211;DHT22;38179;52.756;6.906;2022-07-29T15:43:07;23.60;99.90
52211;DHT22;38179;52.756;6.906;2022-07-29T15:45:38;23.60;99.90
52211;DHT22;38179;52.756;6.906;2022-07-29T15:48:08;23.60;99.90
52211;DHT22;38179;52.756;6.906;2022-07-29T15:50:34;23.70;99.90
52211;DHT22;38179;52.756;6.906;2022-07-29T15:53:01;23.70;99.90
52211;DHT22;38179;52.756;6.906;2022-07-29T15:55:27;23.80;99.90
52211;DHT22;38179;52.756;6.906;2022-07-29T15:57:53;23.80;99.90
52211;DHT22;38179;52.756;6.906;2022-07-29T16:00:21;23.70;99.90
52211;DHT22;38179;52.756;6.906;2022-07-29T16:02:47;23.70;99.90
52211;DHT22;38179;52.756;6.906;2022-07-29T16:05:12;23.70;99.90
52211;DHT22;38179;52.756;6.906;2022-07-29T16:07:38;23.70;99.90
52211;DHT22;38179;52.756;6.906;2022-07-29T16:10:04;23.70;99.90
52211;DHT22;38179;52.756;6.906;2022-07-29T16:12:32;23.70;99.90
52211;DHT22;38179;52.756;6.906;2022-07-29T16:14:58;23.90;99.90
52211;DHT22;38179;52.756;6.906;2022-07-29T16:17:24;24.00;99.90
52211;DHT22;38179;52.756;6.906;2022-07-29T16:19:49;24.00;99.90
52211;DHT22;38179;52.756;6.906;2022-07-29T16:22:15;24.10;99.90
52211;DHT22;38179;52.756;6.906;2022-07-29T16:24:41;24.30;99.90
52211;DHT22;38179;52.756;6.906;2022-07-29T16:27:10;24.30;99.90
52211;DHT22;38179;52.756;6.906;2022-07-29T16:29:35;24.30;99.90
52211;DHT22;38179;52.756;6.906;2022-07-29T16:32:01;24.40;99.90